createdAt,value
2022-12-23T00:00:17.598Z,0
2022-12-23T00:01:01.522Z,0
2022-12-23T00:01:47.585Z,0
2022-12-23T00:04:17.438Z,0
2022-12-23T00:04:57.843Z,0
2022-12-23T00:05:38.583Z,0
2022-12-23T00:06:18.879Z,0
2022-12-23T00:08:31.902Z,0
2022-12-23T00:09:12.452Z,0
2022-12-23T00:09:52.963Z,0
2022-12-23T00:10:33.488Z,0
2022-12-23T00:14:07.924Z,0
2022-12-23T00:14:48.475Z,0
2022-12-23T00:15:29.057Z,0
2022-12-23T00:16:09.671Z,0
2022-12-23T00:20:13.023Z,0
2022-12-23T00:20:53.640Z,0
2022-12-23T00:21:34.168Z,0
2022-12-23T00:22:14.773Z,0
2022-12-23T00:22:55.291Z,0
2022-12-23T00:23:35.895Z,0
2022-12-23T00:24:16.449Z,0
2022-12-23T00:24:56.970Z,0
2022-12-23T00:25:37.547Z,0
2022-12-23T00:31:13.229Z,0
2022-12-23T00:31:53.710Z,0
2022-12-23T00:32:34.265Z,0
2022-12-23T00:33:14.772Z,0
2022-12-23T00:36:08.915Z,0
2022-12-23T00:36:50.337Z,0
2022-12-23T00:37:31.603Z,0
2022-12-23T00:38:12.137Z,0
2022-12-23T00:40:24.905Z,0
2022-12-23T00:41:05.433Z,0
2022-12-23T00:41:47.538Z,0
2022-12-23T00:42:28.018Z,0
2022-12-23T00:44:29.657Z,0
2022-12-23T00:45:10.246Z,0
2022-12-23T00:45:50.832Z,0
2022-12-23T00:46:31.396Z,0
2022-12-23T00:47:11.852Z,0
2022-12-23T00:47:52.444Z,0
2022-12-23T00:48:32.956Z,0
2022-12-23T00:49:13.513Z,0
2022-12-23T00:49:54.057Z,0
2022-12-23T00:50:34.619Z,0
2022-12-23T00:53:28.727Z,0
2022-12-23T00:54:10.816Z,0
2022-12-23T00:54:52.189Z,0
2022-12-23T00:57:32.845Z,0
2022-12-23T00:58:15.193Z,0
2022-12-23T00:58:55.718Z,0
2022-12-23T01:03:15.155Z,0
2022-12-23T01:03:56.259Z,0
2022-12-23T01:04:37.471Z,0
2022-12-23T01:05:18.074Z,0
2022-12-23T01:07:19.855Z,0
2022-12-23T01:08:02.061Z,0
2022-12-23T01:08:42.574Z,0
2022-12-23T01:09:23.623Z,0
2022-12-23T01:11:52.068Z,0
2022-12-23T01:12:32.658Z,0
2022-12-23T01:13:13.203Z,0
2022-12-23T01:13:53.798Z,0
2022-12-23T01:17:17.290Z,0
2022-12-23T01:17:58.250Z,0
2022-12-23T01:18:38.860Z,0
2022-12-23T01:19:19.908Z,0
2022-12-23T01:20:00.500Z,0
2022-12-23T01:20:41.014Z,0
2022-12-23T01:26:59.131Z,0
2022-12-23T01:27:40.520Z,0
2022-12-23T01:28:21.072Z,0
2022-12-23T01:29:02.293Z,0
2022-12-23T01:32:17.086Z,0
2022-12-23T01:32:58.390Z,0
2022-12-23T01:33:38.918Z,0
2022-12-23T01:34:19.495Z,0
2022-12-23T01:36:54.358Z,0
2022-12-23T01:37:36.438Z,0
2022-12-23T01:38:16.992Z,0
2022-12-23T01:38:59.312Z,0
2022-12-23T01:41:32.712Z,0
2022-12-23T01:42:13.279Z,0
2022-12-23T01:42:54.305Z,0
2022-12-23T01:43:34.848Z,0
2022-12-23T01:46:17.611Z,0
2022-12-23T01:46:58.100Z,0
2022-12-23T01:47:38.636Z,0
2022-12-23T01:48:19.162Z,0
2022-12-23T01:48:59.687Z,0
2022-12-23T01:49:40.232Z,0
2022-12-23T01:50:21.493Z,0
2022-12-23T01:51:02.033Z,0
2022-12-23T01:57:07.325Z,0
2022-12-23T01:57:47.859Z,0
2022-12-23T01:58:28.397Z,0
2022-12-23T01:59:08.932Z,0
2022-12-23T01:59:49.440Z,0
2022-12-23T02:00:29.984Z,0
2022-12-23T02:01:10.516Z,0
2022-12-23T02:01:51.113Z,0
2022-12-23T02:02:31.650Z,0
2022-12-23T02:03:12.140Z,0
2022-12-23T02:09:57.333Z,0
2022-12-23T02:10:37.884Z,0
2022-12-23T02:11:18.405Z,0
2022-12-23T02:11:58.930Z,0
2022-12-23T02:12:39.493Z,0
2022-12-23T02:13:19.993Z,0
2022-12-23T02:14:00.557Z,0
2022-12-23T02:14:41.124Z,0
2022-12-23T02:15:21.634Z,0
2022-12-23T02:16:02.152Z,0
2022-12-23T02:21:27.322Z,0
2022-12-23T02:22:07.873Z,0
2022-12-23T02:22:48.411Z,0
2022-12-23T02:23:28.923Z,0
2022-12-23T02:24:09.461Z,0
2022-12-23T02:24:49.967Z,0
2022-12-23T02:25:30.511Z,0
2022-12-23T02:26:11.056Z,0
2022-12-23T02:26:51.558Z,0
2022-12-23T02:27:32.083Z,0
2022-12-23T02:33:37.472Z,0
2022-12-23T02:34:17.991Z,0
2022-12-23T02:34:58.534Z,0
2022-12-23T02:35:39.043Z,0
2022-12-23T02:36:19.595Z,0
2022-12-23T02:37:00.132Z,0
2022-12-23T02:37:40.628Z,0
2022-12-23T02:38:21.142Z,0
2022-12-23T02:39:02.271Z,0
2022-12-23T02:44:41.580Z,0
2022-12-23T02:45:22.114Z,0
2022-12-23T02:46:02.728Z,0
2022-12-23T02:46:43.350Z,0
2022-12-23T02:48:56.559Z,0
2022-12-23T02:49:37.886Z,0
2022-12-23T02:50:19.354Z,0
2022-12-23T02:50:59.994Z,0
2022-12-23T02:53:13.124Z,0
2022-12-23T02:53:53.557Z,0
2022-12-23T02:54:34.087Z,0
2022-12-23T02:55:14.597Z,0
2022-12-23T02:59:17.749Z,0
2022-12-23T02:59:58.285Z,0
2022-12-23T03:00:38.805Z,0
2022-12-23T03:01:19.361Z,0
2022-12-23T03:01:59.985Z,0
2022-12-23T03:02:40.636Z,0
2022-12-23T03:03:21.184Z,0
2022-12-23T03:04:01.505Z,0
2022-12-23T03:04:41.966Z,0
2022-12-23T03:05:22.497Z,0
2022-12-23T03:12:07.899Z,0
2022-12-23T03:12:48.474Z,0
2022-12-23T03:13:28.998Z,0
2022-12-23T03:14:10.138Z,0
2022-12-23T03:14:50.639Z,0
2022-12-23T03:15:31.216Z,0
2022-12-23T03:16:12.375Z,0
2022-12-23T03:19:06.345Z,0
2022-12-23T03:19:46.882Z,0
2022-12-23T03:20:27.392Z,0
2022-12-23T03:21:07.896Z,0
2022-12-23T03:23:21.242Z,0
2022-12-23T03:24:01.811Z,0
2022-12-23T03:24:42.254Z,0
2022-12-23T03:25:22.905Z,0
2022-12-23T03:27:35.674Z,0
2022-12-23T03:28:16.184Z,0
2022-12-23T03:28:56.720Z,0
2022-12-23T03:29:37.251Z,0
2022-12-23T03:32:10.623Z,0
2022-12-23T03:32:51.150Z,0
2022-12-23T03:33:31.704Z,0
2022-12-23T03:34:12.198Z,0
2022-12-23T03:37:36.722Z,0
2022-12-23T03:38:18.194Z,0
2022-12-23T03:38:58.718Z,0
2022-12-23T03:39:39.239Z,0
2022-12-23T03:40:19.746Z,0
2022-12-23T03:41:00.250Z,0
2022-12-23T03:45:57.543Z,0
2022-12-23T03:46:38.219Z,0
2022-12-23T03:47:18.714Z,0
2022-12-23T03:47:59.373Z,0
2022-12-23T03:50:12.380Z,0
2022-12-23T03:50:52.913Z,0
2022-12-23T03:51:33.461Z,0
2022-12-23T03:52:20.733Z,0
2022-12-23T03:56:17.213Z,0
2022-12-23T03:56:57.689Z,0
2022-12-23T03:57:38.255Z,0
2022-12-23T03:58:18.770Z,0
2022-12-23T03:58:59.303Z,0
2022-12-23T03:59:39.807Z,0
2022-12-23T04:00:20.344Z,0
2022-12-23T04:01:00.874Z,0
2022-12-23T04:01:41.574Z,0
2022-12-23T04:02:22.036Z,0
2022-12-23T04:07:47.017Z,0
2022-12-23T04:08:27.538Z,0
2022-12-23T04:09:08.057Z,0
2022-12-23T04:09:48.576Z,0
2022-12-23T04:10:29.127Z,0
2022-12-23T04:13:07.560Z,0
2022-12-23T04:13:48.069Z,0
2022-12-23T04:14:28.611Z,0
2022-12-23T04:15:12.988Z,0
2022-12-23T04:19:12.256Z,0
2022-12-23T04:19:52.801Z,0
2022-12-23T04:20:33.981Z,0
2022-12-23T04:21:14.523Z,0
2022-12-23T04:21:55.019Z,0
2022-12-23T04:22:35.599Z,0
2022-12-23T04:23:16.074Z,0
2022-12-23T04:23:56.593Z,0
2022-12-23T04:24:37.122Z,0
2022-12-23T04:31:22.382Z,0
2022-12-23T04:32:02.874Z,0
2022-12-23T04:32:43.439Z,0
2022-12-23T04:33:23.927Z,0
2022-12-23T04:34:04.447Z,0
2022-12-23T04:34:44.975Z,0
2022-12-23T04:35:25.482Z,0
2022-12-23T04:36:06.023Z,0
2022-12-23T04:36:46.549Z,0
2022-12-23T04:37:27.062Z,0
2022-12-23T04:44:12.382Z,0
2022-12-23T04:44:52.943Z,0
2022-12-23T04:45:33.479Z,0
2022-12-23T04:46:14.885Z,0
2022-12-23T04:46:55.400Z,0
2022-12-23T04:47:35.925Z,0
2022-12-23T04:48:16.483Z,0
2022-12-23T04:48:57.006Z,0
2022-12-23T04:51:52.128Z,0
2022-12-23T04:52:32.618Z,0
2022-12-23T04:53:13.141Z,0
2022-12-23T04:53:53.659Z,0
2022-12-23T04:56:12.844Z,0
2022-12-23T04:56:53.418Z,0
2022-12-23T04:57:33.989Z,0
2022-12-23T04:58:14.540Z,0
2022-12-23T05:00:53.257Z,0
2022-12-23T05:01:35.253Z,0
2022-12-23T05:02:16.416Z,0
2022-12-23T05:02:56.895Z,0
2022-12-23T05:05:09.571Z,0
2022-12-23T05:05:50.082Z,0
2022-12-23T05:06:30.673Z,0
2022-12-23T05:07:11.229Z,0
2022-12-23T05:09:29.379Z,0
2022-12-23T05:10:09.905Z,0
2022-12-23T05:10:50.413Z,0
2022-12-23T05:11:30.934Z,0
2022-12-23T05:14:00.424Z,0
2022-12-23T05:14:40.969Z,0
2022-12-23T05:15:21.489Z,0
2022-12-23T05:16:02.119Z,0
2022-12-23T05:18:15.133Z,0
2022-12-23T05:18:55.673Z,0
2022-12-23T05:19:36.501Z,0
2022-12-23T05:20:16.995Z,0
2022-12-23T05:24:13.246Z,0
2022-12-23T05:24:55.665Z,0
2022-12-23T05:25:37.202Z,0
2022-12-23T05:26:17.662Z,0
2022-12-23T05:27:00.266Z,0
2022-12-23T05:27:40.347Z,0
2022-12-23T05:30:14.520Z,0
2022-12-23T05:30:56.028Z,0
2022-12-23T05:31:36.598Z,0
2022-12-23T05:32:17.074Z,0
2022-12-23T05:34:51.051Z,0
2022-12-23T05:35:32.246Z,0
2022-12-23T05:36:12.773Z,0
2022-12-23T05:36:53.302Z,0
2022-12-23T05:39:48.448Z,0
2022-12-23T05:40:30.439Z,0
2022-12-23T05:41:10.056Z,0
2022-12-23T05:41:52.134Z,0
2022-12-23T05:44:05.183Z,0
2022-12-23T05:44:45.730Z,0
2022-12-23T05:45:26.313Z,0
2022-12-23T05:46:06.808Z,0
2022-12-23T05:49:41.408Z,0
2022-12-23T05:50:21.928Z,0
2022-12-23T05:51:02.451Z,0
2022-12-23T05:51:43.905Z,0
2022-12-23T05:55:39.903Z,0
2022-12-23T05:56:20.447Z,0
2022-12-23T05:57:00.983Z,0
2022-12-23T05:57:41.539Z,0
2022-12-23T06:01:44.990Z,0
2022-12-23T06:02:25.584Z,0
2022-12-23T06:03:06.172Z,0
2022-12-23T06:03:46.802Z,0
2022-12-23T06:04:27.152Z,0
2022-12-23T06:05:07.603Z,0
2022-12-23T06:05:48.147Z,0
2022-12-23T06:08:01.215Z,0
2022-12-23T06:08:41.769Z,0
2022-12-23T06:09:22.968Z,0
2022-12-23T06:10:03.477Z,0
2022-12-23T06:12:16.529Z,0
2022-12-23T06:12:57.035Z,0
2022-12-23T06:13:37.565Z,0
2022-12-23T06:14:21.435Z,0
2022-12-23T06:16:52.749Z,0
2022-12-23T06:17:34.474Z,0
2022-12-23T06:18:14.975Z,0
2022-12-23T06:18:55.512Z,0
2022-12-23T06:20:20.592Z,0
2022-12-23T06:20:58.058Z,0
2022-12-23T06:21:39.497Z,0
2022-12-23T06:22:20.019Z,0
2022-12-23T06:23:00.541Z,0
2022-12-23T06:23:41.092Z,0
2022-12-23T06:28:27.491Z,0
2022-12-23T06:30:43.129Z,0
2022-12-23T06:31:23.721Z,0
2022-12-23T06:32:06.130Z,0
2022-12-23T06:32:46.565Z,0
2022-12-23T06:35:03.137Z,0
2022-12-23T06:35:44.400Z,0
2022-12-23T06:36:24.899Z,0
2022-12-23T06:37:06.192Z,0
2022-12-23T06:39:19.800Z,0
2022-12-23T06:40:00.362Z,0
2022-12-23T06:40:40.870Z,0
2022-12-23T06:41:21.400Z,0
2022-12-23T06:43:39.289Z,0
2022-12-23T06:44:19.817Z,0
2022-12-23T06:45:00.473Z,0
2022-12-23T06:45:42.548Z,0
2022-12-23T06:47:44.208Z,0
2022-12-23T06:48:24.714Z,0
2022-12-23T06:51:03.743Z,0
2022-12-23T06:51:44.250Z,0
2022-12-23T06:52:24.814Z,0
2022-12-23T06:53:05.387Z,0
2022-12-23T06:56:41.184Z,0
2022-12-23T06:57:21.680Z,0
2022-12-23T06:58:02.275Z,0
2022-12-23T06:58:42.789Z,0
2022-12-23T07:02:14.719Z,0
2022-12-23T07:02:57.285Z,0
2022-12-23T07:03:38.783Z,0
2022-12-23T07:04:22.149Z,0
2022-12-23T07:06:50.454Z,0
2022-12-23T07:07:32.641Z,0
2022-12-23T07:08:13.998Z,0
2022-12-23T07:08:56.487Z,0
2022-12-23T07:11:09.806Z,0
2022-12-23T07:11:50.950Z,0
2022-12-23T07:12:32.036Z,0
2022-12-23T07:13:12.560Z,0
2022-12-23T07:15:32.431Z,0
2022-12-23T07:16:13.014Z,0
2022-12-23T07:16:53.584Z,0
2022-12-23T07:17:34.147Z,0
2022-12-23T07:20:17.368Z,0
2022-12-23T07:20:58.023Z,0
2022-12-23T07:21:38.539Z,5
2022-12-23T07:22:19.131Z,5
2022-12-23T07:23:00.332Z,5
2022-12-23T07:23:41.817Z,5
2022-12-23T07:26:51.219Z,5
2022-12-23T07:27:31.737Z,5
2022-12-23T07:28:12.300Z,5
2022-12-23T07:28:52.828Z,5
2022-12-23T07:32:56.116Z,0
2022-12-23T07:33:36.652Z,5
2022-12-23T07:34:17.144Z,5
2022-12-23T07:34:57.678Z,0
2022-12-23T07:37:36.181Z,5
2022-12-23T07:38:16.714Z,5
2022-12-23T07:38:57.246Z,10
2022-12-23T07:39:37.757Z,10
2022-12-23T07:43:40.984Z,10
2022-12-23T07:44:21.533Z,10
2022-12-23T07:45:02.058Z,10
2022-12-23T07:45:42.629Z,10
2022-12-23T07:46:23.179Z,10
2022-12-23T07:47:03.604Z,10
2022-12-23T07:47:44.120Z,10
2022-12-23T07:48:24.628Z,10
2022-12-23T07:49:05.182Z,15
2022-12-23T07:49:45.680Z,15
2022-12-23T07:55:56.210Z,40
2022-12-23T07:56:31.575Z,45
2022-12-23T07:57:12.091Z,45
2022-12-23T07:57:52.649Z,50
2022-12-23T07:58:33.202Z,55
2022-12-23T07:59:13.782Z,55
2022-12-23T08:01:52.402Z,80
2022-12-23T08:02:32.944Z,85
2022-12-23T08:03:13.437Z,90
2022-12-23T08:03:53.892Z,85
2022-12-23T08:07:56.941Z,70
2022-12-23T08:08:38.166Z,70
2022-12-23T08:09:18.710Z,70
2022-12-23T08:09:59.231Z,65
2022-12-23T08:10:44.554Z,65
2022-12-23T08:11:20.291Z,70
2022-12-23T08:12:00.814Z,75
2022-12-23T08:12:41.337Z,80
2022-12-23T08:13:21.865Z,80
2022-12-23T08:21:43.655Z,145
2022-12-23T08:22:24.159Z,140
2022-12-23T08:23:04.675Z,130
2022-12-23T08:23:45.193Z,130
2022-12-23T08:26:18.545Z,105
2022-12-23T08:26:59.079Z,100
2022-12-23T08:27:39.635Z,105
2022-12-23T08:28:20.212Z,105
2022-12-23T08:31:54.403Z,115
2022-12-23T08:32:34.953Z,115
2022-12-23T08:33:15.553Z,110
2022-12-23T08:35:54.701Z,85
2022-12-23T08:36:35.199Z,75
2022-12-23T08:37:15.739Z,70
2022-12-23T08:37:57.138Z,65
2022-12-23T08:39:59.360Z,65
2022-12-23T08:40:39.885Z,65
2022-12-23T08:41:20.386Z,60
2022-12-23T08:42:00.907Z,55
2022-12-23T08:42:41.450Z,55
2022-12-23T08:43:21.936Z,50
2022-12-23T08:44:02.469Z,50
2022-12-23T08:44:43.021Z,55
2022-12-23T08:45:23.551Z,55
2022-12-23T08:49:59.143Z,70
2022-12-23T08:50:39.661Z,65
2022-12-23T08:51:20.274Z,65
2022-12-23T08:52:00.801Z,65
2022-12-23T08:56:04.020Z,65
2022-12-23T08:56:44.521Z,65
2022-12-23T08:57:25.941Z,65
2022-12-23T08:58:07.209Z,65
2022-12-23T08:58:48.353Z,60
2022-12-23T09:07:08.531Z,85
2022-12-23T09:07:49.669Z,85
2022-12-23T09:08:30.167Z,90
2022-12-23T09:09:10.696Z,90
2022-12-23T09:09:52.731Z,95
2022-12-23T09:10:33.283Z,95
2022-12-23T09:11:13.802Z,110
2022-12-23T09:11:54.336Z,110
2022-12-23T09:12:35.448Z,110
2022-12-23T09:13:22.469Z,115
2022-12-23T09:15:50.934Z,125
2022-12-23T09:16:32.174Z,125
2022-12-23T09:17:12.595Z,125
2022-12-23T09:17:53.137Z,120
2022-12-23T09:20:24.115Z,120
2022-12-23T09:21:04.631Z,120
2022-12-23T09:21:45.144Z,120
2022-12-23T09:22:25.685Z,115
2022-12-23T09:26:28.856Z,105
2022-12-23T09:27:09.398Z,100
2022-12-23T09:27:49.963Z,100
2022-12-23T09:28:30.510Z,95
2022-12-23T09:29:11.035Z,95
2022-12-23T09:29:51.584Z,90
2022-12-23T09:30:32.102Z,85
2022-12-23T09:31:12.720Z,85
2022-12-23T09:31:53.164Z,80
2022-12-23T09:32:33.695Z,75
2022-12-23T09:39:30.453Z,65
2022-12-23T09:40:10.955Z,65
2022-12-23T09:40:51.495Z,65
2022-12-23T09:41:32.025Z,65
2022-12-23T09:44:55.395Z,70
2022-12-23T09:45:40.442Z,65
2022-12-23T09:46:16.583Z,65
2022-12-23T09:46:57.881Z,60
2022-12-23T09:47:38.234Z,60
2022-12-23T09:48:18.751Z,60
2022-12-23T09:48:59.271Z,65
2022-12-23T09:49:39.796Z,65
2022-12-23T09:55:45.316Z,40
2022-12-23T09:56:25.837Z,40
2022-12-23T09:57:06.374Z,40
2022-12-23T09:57:46.883Z,40
2022-12-23T09:58:27.425Z,40
2022-12-23T09:59:08.689Z,35
2022-12-23T10:06:36.333Z,55
2022-12-23T10:07:17.696Z,60
2022-12-23T10:07:58.207Z,65
2022-12-23T10:08:38.733Z,65
2022-12-23T10:09:19.272Z,60
2022-12-23T10:09:59.810Z,60
2022-12-23T10:14:45.298Z,85
2022-12-23T10:15:25.835Z,85
2022-12-23T10:16:07.007Z,95
2022-12-23T10:16:47.509Z,95
2022-12-23T10:17:27.972Z,95
2022-12-23T10:18:08.495Z,95
2022-12-23T10:18:49.019Z,90
2022-12-23T10:25:35.164Z,100
2022-12-23T10:26:15.746Z,100
2022-12-23T10:26:56.229Z,85
2022-12-23T10:27:36.757Z,85
2022-12-23T10:30:42.352Z,60
2022-12-23T10:31:23.689Z,60
2022-12-23T10:31:40.869Z,60
2022-12-23T10:32:17.218Z,60
2022-12-23T10:35:40.355Z,115
2022-12-23T10:36:21.085Z,105
2022-12-23T10:37:01.604Z,85
2022-12-23T10:37:42.081Z,75
2022-12-23T10:38:22.594Z,65
2022-12-23T10:39:03.935Z,65
2022-12-23T10:39:44.461Z,65
2022-12-23T10:40:24.977Z,70
2022-12-23T10:47:10.409Z,90
2022-12-23T10:47:50.813Z,95
2022-12-23T10:48:31.330Z,100
2022-12-23T10:49:11.872Z,100
2022-12-23T10:49:52.469Z,95
2022-12-23T10:50:32.920Z,90
2022-12-23T10:51:13.464Z,75
2022-12-23T10:51:53.987Z,75
2022-12-23T10:52:34.520Z,80
2022-12-23T10:53:15.047Z,80
2022-12-23T10:59:20.529Z,85
2022-12-23T11:00:01.043Z,85
2022-12-23T11:00:41.595Z,80
2022-12-23T11:01:26.962Z,75
2022-12-23T11:02:02.821Z,70
2022-12-23T11:02:43.281Z,70
2022-12-23T11:03:23.911Z,80
2022-12-23T11:04:04.288Z,80
2022-12-23T11:04:44.818Z,80
2022-12-23T11:09:01.878Z,60
2022-12-23T11:09:42.433Z,65
2022-12-23T11:10:22.981Z,65
2022-12-23T11:11:04.194Z,60
2022-12-23T11:13:18.467Z,50
2022-12-23T11:13:59.916Z,55
2022-12-23T11:14:40.426Z,60
2022-12-23T11:15:20.940Z,65
2022-12-23T11:17:23.144Z,55
2022-12-23T11:18:03.682Z,55
2022-12-23T11:18:44.212Z,70
2022-12-23T11:19:24.727Z,75
2022-12-23T11:20:05.245Z,75
2022-12-23T11:20:45.772Z,85
2022-12-23T11:21:26.312Z,85
2022-12-23T11:24:04.488Z,75
2022-12-23T11:24:45.006Z,70
2022-12-23T11:25:25.534Z,70
2022-12-23T11:26:06.057Z,65
2022-12-23T11:30:20.771Z,70
2022-12-23T11:31:01.431Z,70
2022-12-23T11:31:42.787Z,75
2022-12-23T11:32:23.305Z,80
2022-12-23T11:34:56.415Z,65
2022-12-23T11:35:36.967Z,65
2022-12-23T11:36:17.393Z,65
2022-12-23T11:37:01.717Z,60
2022-12-23T11:39:31.637Z,55
2022-12-23T11:40:12.297Z,45
2022-12-23T11:40:52.734Z,45
2022-12-23T11:41:33.259Z,45
2022-12-23T11:43:46.352Z,55
2022-12-23T11:44:26.963Z,50
2022-12-23T11:45:07.372Z,50
2022-12-23T11:45:48.032Z,50
2022-12-23T11:48:00.682Z,40
2022-12-23T11:48:42.067Z,40
2022-12-23T11:49:24.158Z,40
2022-12-23T11:50:04.715Z,35
2022-12-23T11:52:19.322Z,40
2022-12-23T11:52:59.831Z,35
2022-12-23T11:53:40.364Z,40
2022-12-23T11:54:20.881Z,40
2022-12-23T11:56:40.638Z,40
2022-12-23T11:57:21.172Z,35
2022-12-23T11:58:02.589Z,30
2022-12-23T11:58:43.204Z,35
2022-12-23T12:01:11.590Z,40
2022-12-23T12:01:52.136Z,40
2022-12-23T12:02:32.801Z,40
2022-12-23T12:03:13.219Z,30
2022-12-23T12:07:43.162Z,35
2022-12-23T12:08:23.697Z,35
2022-12-23T12:09:04.215Z,35
2022-12-23T12:09:44.770Z,35
2022-12-23T12:11:57.637Z,40
2022-12-23T12:12:38.206Z,45
2022-12-23T12:13:18.743Z,50
2022-12-23T12:13:59.226Z,50
2022-12-23T12:16:18.522Z,60
2022-12-23T12:16:59.932Z,55
2022-12-23T12:17:40.942Z,60
2022-12-23T12:18:21.508Z,70
2022-12-23T12:20:39.836Z,50
2022-12-23T12:21:20.299Z,55
2022-12-23T12:22:00.849Z,50
2022-12-23T12:22:42.361Z,50
2022-12-23T12:24:56.631Z,40
2022-12-23T12:25:39.601Z,40
2022-12-23T12:26:17.660Z,55
2022-12-23T12:28:56.459Z,65
2022-12-23T12:29:36.973Z,60
2022-12-23T12:30:17.503Z,50
2022-12-23T12:30:58.069Z,70
2022-12-23T12:33:01.207Z,70
2022-12-23T12:33:41.766Z,65
2022-12-23T12:36:10.675Z,75
2022-12-23T12:36:51.190Z,70
2022-12-23T12:37:31.694Z,65
2022-12-23T12:38:13.065Z,60
2022-12-23T12:40:26.315Z,50
2022-12-23T12:41:06.876Z,50
2022-12-23T12:41:47.468Z,60
2022-12-23T12:42:28.006Z,55
2022-12-23T12:46:03.493Z,50
2022-12-23T12:46:44.010Z,50
2022-12-23T12:48:12.987Z,50
2022-12-23T12:50:18.053Z,35
2022-12-23T12:50:58.598Z,40
2022-12-23T12:51:40.640Z,45
2022-12-23T12:52:21.174Z,50
2022-12-23T12:55:56.020Z,45
2022-12-23T12:56:36.506Z,40
2022-12-23T12:57:17.892Z,40
2022-12-23T12:57:58.402Z,45
2022-12-23T13:00:22.672Z,25
2022-12-23T13:01:03.203Z,30
2022-12-23T13:01:43.718Z,25
2022-12-23T13:02:24.328Z,20
2022-12-23T13:03:04.879Z,20
2022-12-23T13:03:45.384Z,25
2022-12-23T13:04:25.897Z,25
2022-12-23T13:05:06.424Z,20
2022-12-23T13:05:51.794Z,25
2022-12-23T13:06:27.479Z,25
2022-12-23T13:07:08.031Z,25
2022-12-23T13:10:42.213Z,30
2022-12-23T13:11:28.090Z,25
2022-12-23T13:12:03.356Z,20
2022-12-23T13:12:43.911Z,20
2022-12-23T13:15:26.990Z,25
2022-12-23T13:16:07.516Z,30
2022-12-23T13:16:48.154Z,30
2022-12-23T13:17:28.670Z,30
2022-12-23T13:18:09.940Z,35
2022-12-23T13:18:50.490Z,40
2022-12-23T13:19:31.050Z,40
2022-12-23T13:20:11.649Z,45
2022-12-23T13:26:57.206Z,40
2022-12-23T13:27:37.763Z,45
2022-12-23T13:28:18.307Z,50
2022-12-23T13:28:58.887Z,55
2022-12-23T13:29:39.453Z,50
2022-12-23T13:30:20.026Z,50
2022-12-23T13:31:00.666Z,50
2022-12-23T13:31:41.072Z,45
2022-12-23T13:32:21.654Z,45
2022-12-23T13:36:01.378Z,35
2022-12-23T13:36:36.400Z,35
2022-12-23T13:37:16.904Z,40
2022-12-23T13:37:58.296Z,45
2022-12-23T13:41:42.356Z,55
2022-12-23T13:42:22.900Z,50
2022-12-23T13:43:03.468Z,45
2022-12-23T13:43:44.047Z,50
2022-12-23T13:47:47.413Z,40
2022-12-23T13:48:28.005Z,40
2022-12-23T13:49:08.522Z,40
2022-12-23T13:49:49.122Z,40
2022-12-23T13:50:29.641Z,40
2022-12-23T13:51:10.227Z,35
2022-12-23T13:51:50.763Z,35
2022-12-23T13:52:31.323Z,35
2022-12-23T13:53:11.822Z,35
2022-12-23T13:57:26.810Z,45
2022-12-23T13:58:07.355Z,40
2022-12-23T13:58:47.945Z,35
2022-12-23T13:59:28.460Z,35
2022-12-23T14:05:08.368Z,40
2022-12-23T14:05:46.542Z,40
2022-12-23T14:06:27.068Z,40
2022-12-23T14:07:07.624Z,45
2022-12-23T14:09:09.311Z,35
2022-12-23T14:09:49.824Z,40
2022-12-23T14:10:30.416Z,40
2022-12-23T14:11:10.949Z,45
2022-12-23T14:11:51.478Z,45
2022-12-23T14:12:32.034Z,45
2022-12-23T14:13:12.680Z,40
2022-12-23T14:13:53.227Z,40
2022-12-23T14:14:33.843Z,35
2022-12-23T14:18:48.511Z,25
2022-12-23T14:19:29.126Z,25
2022-12-23T14:20:09.633Z,25
2022-12-23T14:20:50.250Z,20
2022-12-23T14:23:51.304Z,25
2022-12-23T14:24:31.848Z,25
2022-12-23T14:25:12.368Z,25
2022-12-23T14:25:52.912Z,20
2022-12-23T14:30:09.068Z,20
2022-12-23T14:30:49.378Z,20
2022-12-23T14:31:29.902Z,20
2022-12-23T14:32:10.480Z,25
2022-12-23T14:35:04.248Z,30
2022-12-23T14:35:44.814Z,35
2022-12-23T14:36:25.404Z,35
2022-12-23T14:37:05.908Z,30
2022-12-23T14:39:59.784Z,30
2022-12-23T14:40:40.348Z,35
2022-12-23T14:41:20.962Z,35
2022-12-23T14:42:05.904Z,30
2022-12-23T14:46:05.045Z,15
2022-12-23T14:46:45.531Z,20
2022-12-23T14:47:25.929Z,20
2022-12-23T14:48:06.476Z,20
2022-12-23T14:48:47.025Z,20
2022-12-23T14:49:38.718Z,20
2022-12-23T14:50:08.102Z,15
2022-12-23T14:50:48.674Z,15
2022-12-23T14:51:29.209Z,15
2022-12-23T14:58:14.643Z,10
2022-12-23T14:58:55.200Z,10
2022-12-23T14:59:35.791Z,10
2022-12-23T15:00:16.329Z,10
2022-12-23T15:00:57.019Z,10
2022-12-23T15:01:37.582Z,10
2022-12-23T15:02:18.180Z,10
2022-12-23T15:02:58.748Z,5
2022-12-23T15:03:39.282Z,5
2022-12-23T15:10:15.916Z,10
2022-12-23T15:10:56.470Z,5
2022-12-23T15:11:36.992Z,5
2022-12-23T15:12:18.504Z,5
2022-12-23T15:15:00.606Z,5
2022-12-23T15:15:41.965Z,5
2022-12-23T15:16:22.481Z,5
2022-12-23T15:17:02.962Z,5
2022-12-23T15:17:43.489Z,5
2022-12-23T15:18:24.058Z,5
2022-12-23T15:19:04.574Z,5
2022-12-23T15:19:45.127Z,0
2022-12-23T15:27:28.245Z,0
2022-12-23T15:28:03.669Z,0
2022-12-23T15:28:45.679Z,0
2022-12-23T15:29:26.194Z,0
2022-12-23T15:31:55.925Z,0
2022-12-23T15:32:36.422Z,0
2022-12-23T15:33:51.755Z,0
2022-12-23T15:34:03.254Z,0
2022-12-23T15:35:59.614Z,0
2022-12-23T15:36:40.232Z,0
2022-12-23T15:37:20.702Z,0
2022-12-23T15:38:01.241Z,0
2022-12-23T15:38:41.795Z,0
2022-12-23T15:39:22.358Z,0
2022-12-23T15:40:11.798Z,0
2022-12-23T15:40:43.502Z,0
2022-12-23T15:41:24.023Z,0
2022-12-23T15:42:04.536Z,0
2022-12-23T15:45:38.671Z,0
2022-12-23T15:46:23.589Z,0
2022-12-23T15:46:59.790Z,0
2022-12-23T15:47:40.327Z,0
2022-12-23T15:51:14.586Z,0
2022-12-23T15:52:18.052Z,0
2022-12-23T15:52:39.053Z,0
2022-12-23T15:53:19.610Z,0
2022-12-23T15:55:37.722Z,0
2022-12-23T15:56:18.363Z,0
2022-12-23T15:56:58.867Z,0
2022-12-23T15:57:39.419Z,0
2022-12-23T16:01:42.630Z,0
2022-12-23T16:03:06.525Z,0
2022-12-23T16:03:44.340Z,0
2022-12-23T16:04:24.884Z,0
2022-12-23T16:05:05.346Z,0
2022-12-23T16:05:45.883Z,0
2022-12-23T16:06:26.431Z,0
2022-12-23T16:07:06.972Z,0
2022-12-23T16:14:44.109Z,0
2022-12-23T16:15:24.601Z,0
2022-12-23T16:16:05.155Z,0
2022-12-23T16:16:45.758Z,0
2022-12-23T16:20:09.054Z,0
2022-12-23T16:20:49.648Z,0
2022-12-23T16:21:30.132Z,0
2022-12-23T16:22:10.669Z,0
2022-12-23T16:22:51.257Z,0
2022-12-23T16:23:31.748Z,0
2022-12-23T16:24:12.261Z,0
2022-12-23T16:24:52.781Z,0
2022-12-23T16:25:33.331Z,0
2022-12-23T16:30:59.058Z,0
2022-12-23T16:31:42.943Z,0
2022-12-23T16:32:20.770Z,0
2022-12-23T16:33:01.329Z,0
2022-12-23T16:33:41.858Z,0
2022-12-23T16:34:22.494Z,0
2022-12-23T16:35:02.986Z,0
2022-12-23T16:35:43.511Z,0
2022-12-23T16:41:00.382Z,0
2022-12-23T16:41:40.927Z,0
2022-12-23T16:42:21.494Z,0
2022-12-23T16:44:59.987Z,0
2022-12-23T16:45:40.585Z,0
2022-12-23T16:46:21.167Z,0
2022-12-23T16:47:01.772Z,0
2022-12-23T16:51:04.847Z,0
2022-12-23T16:51:45.390Z,0
2022-12-23T16:52:26.760Z,0
2022-12-23T16:53:07.346Z,0
2022-12-23T16:53:47.871Z,0
2022-12-23T16:54:28.423Z,0
2022-12-23T16:55:08.964Z,0
2022-12-23T17:00:04.795Z,0
2022-12-23T17:00:45.347Z,0
2022-12-23T17:01:25.950Z,0
2022-12-23T17:02:07.242Z,0
2022-12-23T17:04:21.753Z,0
2022-12-23T17:05:02.280Z,0
2022-12-23T17:05:42.804Z,0
2022-12-23T17:06:23.327Z,0
2022-12-23T17:08:36.391Z,0
2022-12-23T17:09:16.912Z,0
2022-12-23T17:09:57.448Z,0
2022-12-23T17:10:38.002Z,0
2022-12-23T17:14:41.117Z,0
2022-12-23T17:15:21.707Z,0
2022-12-23T17:16:02.228Z,0
2022-12-23T17:16:42.783Z,0
2022-12-23T17:17:23.946Z,0
2022-12-23T17:19:37.060Z,0
2022-12-23T17:20:18.429Z,0
2022-12-23T17:20:59.017Z,0
2022-12-23T17:21:39.567Z,0
2022-12-23T17:23:57.759Z,0
2022-12-23T17:24:39.155Z,0
2022-12-23T17:25:24.479Z,0
2022-12-23T17:27:58.803Z,0
2022-12-23T17:28:40.306Z,0
2022-12-23T17:29:20.853Z,0
2022-12-23T17:30:01.343Z,0
2022-12-23T17:32:21.633Z,0
2022-12-23T17:33:02.943Z,0
2022-12-23T17:33:48.323Z,0
2022-12-23T17:34:29.415Z,0
2022-12-23T17:36:47.751Z,0
2022-12-23T17:37:25.775Z,0
2022-12-23T17:38:06.307Z,0
2022-12-23T17:38:48.573Z,0
2022-12-23T17:39:30.065Z,0
2022-12-23T17:41:43.627Z,0
2022-12-23T17:42:25.934Z,0
2022-12-23T17:43:04.656Z,0
2022-12-23T17:43:45.191Z,0
2022-12-23T17:45:58.485Z,0
2022-12-23T17:46:38.917Z,0
2022-12-23T17:47:20.313Z,0
2022-12-23T17:48:01.656Z,0
2022-12-23T17:50:55.751Z,0
2022-12-23T17:51:39.801Z,0
2022-12-23T17:52:20.912Z,0
2022-12-23T17:53:03.974Z,0
2022-12-23T17:55:33.207Z,0
2022-12-23T17:56:13.742Z,0